sensor_id;sensor_type;location;lat;lon;timestamp;P1;durP1;ratioP1;P2;durP2;ratioP2
13327;SDS011;6733;51.044;3.746;2023-06-14T00:01:45;6.00;;;4.60;;
13327;SDS011;6733;51.044;3.746;2023-06-14T00:04:11;4.50;;;4.10;;
13327;SDS011;6733;51.044;3.746;2023-06-14T00:06:38;7.30;;;4.93;;
13327;SDS011;6733;51.044;3.746;2023-06-14T00:09:05;5.30;;;4.70;;
13327;SDS011;6733;51.044;3.746;2023-06-14T00:11:33;8.23;;;4.70;;
13327;SDS011;6733;51.044;3.746;2023-06-14T00:13:59;5.43;;;4.90;;
13327;SDS011;6733;51.044;3.746;2023-06-14T00:16:25;8.67;;;4.90;;
13327;SDS011;6733;51.044;3.746;2023-06-14T00:18:51;5.43;;;4.40;;
13327;SDS011;6733;51.044;3.746;2023-06-14T00:21:17;6.77;;;4.47;;
13327;SDS011;6733;51.044;3.746;2023-06-14T00:23:44;4.67;;;4.27;;
13327;SDS011;6733;51.044;3.746;2023-06-14T00:26:10;5.80;;;4.67;;
13327;SDS011;6733;51.044;3.746;2023-06-14T00:28:36;6.50;;;4.93;;
13327;SDS011;6733;51.044;3.746;2023-06-14T00:31:02;4.57;;;4.20;;
13327;SDS011;6733;51.044;3.746;2023-06-14T00:33:27;5.93;;;4.50;;
13327;SDS011;6733;51.044;3.746;2023-06-14T00:35:54;6.30;;;4.43;;
13327;SDS011;6733;51.044;3.746;2023-06-14T00:38:20;5.03;;;4.60;;
13327;SDS011;6733;51.044;3.746;2023-06-14T00:40:49;5.53;;;4.50;;
13327;SDS011;6733;51.044;3.746;2023-06-14T00:43:15;5.47;;;4.60;;
13327;SDS011;6733;51.044;3.746;2023-06-14T00:45:42;7.60;;;4.77;;
13327;SDS011;6733;51.044;3.746;2023-06-14T00:48:08;5.70;;;4.20;;
13327;SDS011;6733;51.044;3.746;2023-06-14T00:50:36;5.07;;;4.57;;
13327;SDS011;6733;51.044;3.746;2023-06-14T00:53:03;10.03;;;5.37;;
13327;SDS011;6733;51.044;3.746;2023-06-14T00:55:29;5.37;;;4.73;;
13327;SDS011;6733;51.044;3.746;2023-06-14T00:57:56;5.47;;;4.97;;
13327;SDS011;6733;51.044;3.746;2023-06-14T01:00:22;5.77;;;4.70;;
13327;SDS011;6733;51.044;3.746;2023-06-14T01:02:48;5.30;;;4.80;;
13327;SDS011;6733;51.044;3.746;2023-06-14T01:05:17;6.20;;;4.23;;
13327;SDS011;6733;51.044;3.746;2023-06-14T01:15:47;4.70;;;4.30;;
13327;SDS011;6733;51.044;3.746;2023-06-14T01:18:14;6.73;;;6.07;;
13327;SDS011;6733;51.044;3.746;2023-06-14T01:20:43;6.53;;;4.90;;
13327;SDS011;6733;51.044;3.746;2023-06-14T01:23:20;5.13;;;4.70;;
13327;SDS011;6733;51.044;3.746;2023-06-14T01:25:48;9.13;;;6.07;;
13327;SDS011;6733;51.044;3.746;2023-06-14T01:28:18;6.20;;;4.57;;
13327;SDS011;6733;51.044;3.746;2023-06-14T01:30:46;5.57;;;5.00;;
13327;SDS011;6733;51.044;3.746;2023-06-14T01:33:19;5.07;;;4.57;;
13327;SDS011;6733;51.044;3.746;2023-06-14T01:35:48;5.20;;;4.40;;
13327;SDS011;6733;51.044;3.746;2023-06-14T01:38:15;5.77;;;5.20;;
13327;SDS011;6733;51.044;3.746;2023-06-14T01:40:45;6.57;;;4.60;;
13327;SDS011;6733;51.044;3.746;2023-06-14T01:43:15;7.27;;;5.27;;
13327;SDS011;6733;51.044;3.746;2023-06-14T01:45:42;5.20;;;4.70;;
13327;SDS011;6733;51.044;3.746;2023-06-14T01:48:09;6.40;;;5.07;;
13327;SDS011;6733;51.044;3.746;2023-06-14T01:50:36;5.80;;;5.20;;
13327;SDS011;6733;51.044;3.746;2023-06-14T01:53:02;7.80;;;5.30;;
13327;SDS011;6733;51.044;3.746;2023-06-14T01:55:29;5.90;;;5.30;;
13327;SDS011;6733;51.044;3.746;2023-06-14T01:57:55;6.00;;;5.13;;
13327;SDS011;6733;51.044;3.746;2023-06-14T02:00:21;6.90;;;4.90;;
13327;SDS011;6733;51.044;3.746;2023-06-14T02:02:48;5.30;;;4.80;;
13327;SDS011;6733;51.044;3.746;2023-06-14T02:05:14;5.70;;;5.23;;
13327;SDS011;6733;51.044;3.746;2023-06-14T02:07:44;5.30;;;4.80;;
13327;SDS011;6733;51.044;3.746;2023-06-14T02:10:11;6.63;;;5.47;;
13327;SDS011;6733;51.044;3.746;2023-06-14T02:12:38;7.17;;;5.20;;
13327;SDS011;6733;51.044;3.746;2023-06-14T02:15:04;5.20;;;4.70;;
13327;SDS011;6733;51.044;3.746;2023-06-14T02:17:32;6.20;;;5.60;;
13327;SDS011;6733;51.044;3.746;2023-06-14T02:19:58;7.90;;;5.57;;
13327;SDS011;6733;51.044;3.746;2023-06-14T02:22:25;6.37;;;5.40;;
13327;SDS011;6733;51.044;3.746;2023-06-14T02:24:51;5.50;;;4.43;;
13327;SDS011;6733;51.044;3.746;2023-06-14T02:27:18;5.90;;;5.30;;
13327;SDS011;6733;51.044;3.746;2023-06-14T02:29:44;6.63;;;4.80;;
13327;SDS011;6733;51.044;3.746;2023-06-14T02:32:10;5.77;;;5.17;;
13327;SDS011;6733;51.044;3.746;2023-06-14T02:35:01;5.73;;;5.07;;
13327;SDS011;6733;51.044;3.746;2023-06-14T02:37:53;7.67;;;4.87;;
13327;SDS011;6733;51.044;3.746;2023-06-14T02:40:43;6.20;;;5.07;;
13327;SDS011;6733;51.044;3.746;2023-06-14T02:43:35;5.67;;;5.00;;
13327;SDS011;6733;51.044;3.746;2023-06-14T02:46:27;6.87;;;4.50;;
13327;SDS011;6733;51.044;3.746;2023-06-14T02:49:18;8.43;;;5.23;;
13327;SDS011;6733;51.044;3.746;2023-06-14T02:52:08;5.63;;;4.90;;
13327;SDS011;6733;51.044;3.746;2023-06-14T02:55:00;5.50;;;5.00;;
13327;SDS011;6733;51.044;3.746;2023-06-14T02:57:26;5.90;;;5.30;;
13327;SDS011;6733;51.044;3.746;2023-06-14T02:59:52;5.97;;;5.40;;
13327;SDS011;6733;51.044;3.746;2023-06-14T03:02:18;7.30;;;5.10;;
13327;SDS011;6733;51.044;3.746;2023-06-14T03:04:44;6.17;;;5.57;;
13327;SDS011;6733;51.044;3.746;2023-06-14T03:07:12;5.40;;;4.90;;
13327;SDS011;6733;51.044;3.746;2023-06-14T03:09:45;5.43;;;4.93;;
13327;SDS011;6733;51.044;3.746;2023-06-14T03:12:12;5.63;;;5.10;;
13327;SDS011;6733;51.044;3.746;2023-06-14T03:14:38;7.00;;;5.10;;
13327;SDS011;6733;51.044;3.746;2023-06-14T03:17:05;5.40;;;4.90;;
13327;SDS011;6733;51.044;3.746;2023-06-14T03:19:31;5.97;;;5.23;;
13327;SDS011;6733;51.044;3.746;2023-06-14T03:21:57;5.90;;;5.40;;
13327;SDS011;6733;51.044;3.746;2023-06-14T03:24:24;6.17;;;5.30;;
13327;SDS011;6733;51.044;3.746;2023-06-14T03:26:53;6.87;;;6.03;;
13327;SDS011;6733;51.044;3.746;2023-06-14T03:29:19;5.97;;;5.37;;
13327;SDS011;6733;51.044;3.746;2023-06-14T03:31:59;5.87;;;5.37;;
13327;SDS011;6733;51.044;3.746;2023-06-14T03:34:26;5.50;;;5.00;;
13327;SDS011;6733;51.044;3.746;2023-06-14T03:36:52;5.70;;;5.20;;
13327;SDS011;6733;51.044;3.746;2023-06-14T03:39:19;6.33;;;5.73;;
13327;SDS011;6733;51.044;3.746;2023-06-14T03:41:45;5.70;;;5.20;;
13327;SDS011;6733;51.044;3.746;2023-06-14T03:44:13;5.97;;;5.33;;
13327;SDS011;6733;51.044;3.746;2023-06-14T03:46:41;6.70;;;5.57;;
13327;SDS011;6733;51.044;3.746;2023-06-14T03:49:07;6.30;;;5.80;;
13327;SDS011;6733;51.044;3.746;2023-06-14T03:51:33;6.10;;;5.47;;
13327;SDS011;6733;51.044;3.746;2023-06-14T03:54:01;6.30;;;5.37;;
13327;SDS011;6733;51.044;3.746;2023-06-14T03:56:27;6.17;;;5.40;;
13327;SDS011;6733;51.044;3.746;2023-06-14T03:58:53;5.90;;;5.27;;
13327;SDS011;6733;51.044;3.746;2023-06-14T04:01:19;6.20;;;5.50;;
13327;SDS011;6733;51.044;3.746;2023-06-14T04:03:46;7.93;;;6.03;;
13327;SDS011;6733;51.044;3.746;2023-06-14T04:06:12;5.10;;;4.60;;
13327;SDS011;6733;51.044;3.746;2023-06-14T04:08:44;6.97;;;5.43;;
13327;SDS011;6733;51.044;3.746;2023-06-14T04:11:11;6.40;;;5.80;;
13327;SDS011;6733;51.044;3.746;2023-06-14T04:13:37;7.90;;;5.53;;
13327;SDS011;6733;51.044;3.746;2023-06-14T04:16:04;7.00;;;5.93;;
13327;SDS011;6733;51.044;3.746;2023-06-14T04:18:31;6.20;;;5.60;;
13327;SDS011;6733;51.044;3.746;2023-06-14T04:20:57;5.97;;;5.40;;
13327;SDS011;6733;51.044;3.746;2023-06-14T04:23:23;5.53;;;5.00;;
13327;SDS011;6733;51.044;3.746;2023-06-14T04:25:49;7.17;;;5.47;;
13327;SDS011;6733;51.044;3.746;2023-06-14T04:28:15;6.30;;;5.40;;
13327;SDS011;6733;51.044;3.746;2023-06-14T04:30:45;6.67;;;5.17;;
13327;SDS011;6733;51.044;3.746;2023-06-14T04:33:12;7.73;;;5.03;;
13327;SDS011;6733;51.044;3.746;2023-06-14T04:35:39;6.40;;;5.30;;
13327;SDS011;6733;51.044;3.746;2023-06-14T04:38:06;5.67;;;5.17;;
13327;SDS011;6733;51.044;3.746;2023-06-14T04:40:35;6.03;;;5.50;;
13327;SDS011;6733;51.044;3.746;2023-06-14T04:43:08;6.13;;;5.53;;
13327;SDS011;6733;51.044;3.746;2023-06-14T04:45:38;8.17;;;5.40;;
13327;SDS011;6733;51.044;3.746;2023-06-14T04:48:05;6.10;;;4.73;;
13327;SDS011;6733;51.044;3.746;2023-06-14T04:50:32;8.40;;;5.60;;
13327;SDS011;6733;51.044;3.746;2023-06-14T04:52:58;8.00;;;5.17;;
13327;SDS011;6733;51.044;3.746;2023-06-14T04:55:25;7.03;;;5.63;;
13327;SDS011;6733;51.044;3.746;2023-06-14T04:57:52;8.70;;;5.50;;
13327;SDS011;6733;51.044;3.746;2023-06-14T05:00:21;6.17;;;5.50;;
13327;SDS011;6733;51.044;3.746;2023-06-14T05:02:48;10.27;;;6.03;;
13327;SDS011;6733;51.044;3.746;2023-06-14T05:05:16;6.47;;;5.53;;
13327;SDS011;6733;51.044;3.746;2023-06-14T05:07:43;7.53;;;5.40;;
13327;SDS011;6733;51.044;3.746;2023-06-14T05:10:09;9.57;;;5.43;;
13327;SDS011;6733;51.044;3.746;2023-06-14T05:12:36;6.80;;;5.63;;
13327;SDS011;6733;51.044;3.746;2023-06-14T05:15:02;8.13;;;4.90;;
13327;SDS011;6733;51.044;3.746;2023-06-14T05:17:28;5.87;;;5.27;;
13327;SDS011;6733;51.044;3.746;2023-06-14T05:19:54;6.03;;;5.10;;
13327;SDS011;6733;51.044;3.746;2023-06-14T05:22:21;5.53;;;5.00;;
13327;SDS011;6733;51.044;3.746;2023-06-14T05:24:47;7.20;;;4.77;;
13327;SDS011;6733;51.044;3.746;2023-06-14T05:27:14;11.43;;;6.17;;
13327;SDS011;6733;51.044;3.746;2023-06-14T05:29:40;8.20;;;5.10;;
13327;SDS011;6733;51.044;3.746;2023-06-14T05:32:06;7.27;;;5.47;;
13327;SDS011;6733;51.044;3.746;2023-06-14T05:34:32;9.53;;;5.80;;
13327;SDS011;6733;51.044;3.746;2023-06-14T05:36:59;6.17;;;5.07;;
13327;SDS011;6733;51.044;3.746;2023-06-14T05:39:25;9.73;;;4.80;;
13327;SDS011;6733;51.044;3.746;2023-06-14T05:41:51;6.20;;;4.93;;
13327;SDS011;6733;51.044;3.746;2023-06-14T05:44:18;10.03;;;5.70;;
13327;SDS011;6733;51.044;3.746;2023-06-14T05:46:44;6.07;;;5.33;;
13327;SDS011;6733;51.044;3.746;2023-06-14T05:49:10;9.83;;;5.90;;
13327;SDS011;6733;51.044;3.746;2023-06-14T05:51:37;6.70;;;5.57;;
13327;SDS011;6733;51.044;3.746;2023-06-14T05:54:03;6.70;;;5.77;;
13327;SDS011;6733;51.044;3.746;2023-06-14T05:56:30;11.27;;;7.90;;
13327;SDS011;6733;51.044;3.746;2023-06-14T05:58:56;7.93;;;7.17;;
13327;SDS011;6733;51.044;3.746;2023-06-14T06:01:23;10.57;;;7.63;;
13327;SDS011;6733;51.044;3.746;2023-06-14T06:03:49;8.37;;;7.40;;
13327;SDS011;6733;51.044;3.746;2023-06-14T06:06:15;13.83;;;7.67;;
13327;SDS011;6733;51.044;3.746;2023-06-14T06:08:42;9.70;;;7.83;;
13327;SDS011;6733;51.044;3.746;2023-06-14T06:11:08;10.83;;;8.37;;
13327;SDS011;6733;51.044;3.746;2023-06-14T06:13:40;12.40;;;7.00;;
13327;SDS011;6733;51.044;3.746;2023-06-14T06:16:07;10.07;;;7.23;;
13327;SDS011;6733;51.044;3.746;2023-06-14T06:18:33;11.50;;;7.30;;
13327;SDS011;6733;51.044;3.746;2023-06-14T06:20:59;11.17;;;7.63;;
13327;SDS011;6733;51.044;3.746;2023-06-14T06:23:26;9.70;;;6.83;;
13327;SDS011;6733;51.044;3.746;2023-06-14T06:25:52;11.77;;;8.00;;
13327;SDS011;6733;51.044;3.746;2023-06-14T06:28:18;13.73;;;7.60;;
13327;SDS011;6733;51.044;3.746;2023-06-14T06:30:45;10.53;;;7.27;;
13327;SDS011;6733;51.044;3.746;2023-06-14T06:33:12;12.70;;;7.07;;
13327;SDS011;6733;51.044;3.746;2023-06-14T06:35:38;8.63;;;6.80;;
13327;SDS011;6733;51.044;3.746;2023-06-14T06:38:05;11.53;;;7.33;;
13327;SDS011;6733;51.044;3.746;2023-06-14T06:40:31;8.00;;;7.20;;
13327;SDS011;6733;51.044;3.746;2023-06-14T06:42:57;8.87;;;7.40;;
13327;SDS011;6733;51.044;3.746;2023-06-14T06:45:23;8.67;;;6.97;;
13327;SDS011;6733;51.044;3.746;2023-06-14T06:47:50;7.83;;;7.03;;
13327;SDS011;6733;51.044;3.746;2023-06-14T06:50:17;18.47;;;7.43;;
13327;SDS011;6733;51.044;3.746;2023-06-14T06:52:43;8.20;;;6.97;;
13327;SDS011;6733;51.044;3.746;2023-06-14T06:55:10;11.70;;;7.37;;
13327;SDS011;6733;51.044;3.746;2023-06-14T06:57:37;13.83;;;7.77;;
13327;SDS011;6733;51.044;3.746;2023-06-14T07:00:03;8.20;;;7.10;;
13327;SDS011;6733;51.044;3.746;2023-06-14T07:02:34;13.53;;;7.23;;
13327;SDS011;6733;51.044;3.746;2023-06-14T07:05:00;10.87;;;6.97;;
13327;SDS011;6733;51.044;3.746;2023-06-14T07:07:26;10.60;;;7.20;;
13327;SDS011;6733;51.044;3.746;2023-06-14T07:09:52;8.17;;;6.70;;
13327;SDS011;6733;51.044;3.746;2023-06-14T07:12:22;9.27;;;6.60;;
13327;SDS011;6733;51.044;3.746;2023-06-14T07:14:48;8.13;;;6.20;;
13327;SDS011;6733;51.044;3.746;2023-06-14T07:17:14;10.70;;;6.50;;
13327;SDS011;6733;51.044;3.746;2023-06-14T07:19:40;7.93;;;6.33;;
13327;SDS011;6733;51.044;3.746;2023-06-14T07:22:06;14.27;;;6.30;;
13327;SDS011;6733;51.044;3.746;2023-06-14T07:24:32;10.67;;;6.70;;
13327;SDS011;6733;51.044;3.746;2023-06-14T07:27:00;10.88;;;6.45;;
13327;SDS011;6733;51.044;3.746;2023-06-14T07:29:27;10.10;;;6.10;;
13327;SDS011;6733;51.044;3.746;2023-06-14T07:31:53;10.13;;;6.32;;
13327;SDS011;6733;51.044;3.746;2023-06-14T07:34:19;7.00;;;6.13;;
13327;SDS011;6733;51.044;3.746;2023-06-14T07:36:45;9.98;;;6.13;;
13327;SDS011;6733;51.044;3.746;2023-06-14T07:39:11;6.90;;;5.88;;
13327;SDS011;6733;51.044;3.746;2023-06-14T07:41:37;9.50;;;5.75;;
13327;SDS011;6733;51.044;3.746;2023-06-14T07:44:03;12.65;;;7.18;;
13327;SDS011;6733;51.044;3.746;2023-06-14T07:46:30;13.20;;;6.68;;
13327;SDS011;6733;51.044;3.746;2023-06-14T07:48:56;8.32;;;6.28;;
13327;SDS011;6733;51.044;3.746;2023-06-14T07:51:22;10.00;;;6.18;;
13327;SDS011;6733;51.044;3.746;2023-06-14T07:53:48;17.80;;;8.05;;
13327;SDS011;6733;51.044;3.746;2023-06-14T07:56:15;16.02;;;6.60;;
13327;SDS011;6733;51.044;3.746;2023-06-14T07:58:41;15.43;;;7.55;;
13327;SDS011;6733;51.044;3.746;2023-06-14T08:01:08;7.13;;;6.15;;
13327;SDS011;6733;51.044;3.746;2023-06-14T08:03:34;9.38;;;6.28;;
13327;SDS011;6733;51.044;3.746;2023-06-14T08:06:00;14.40;;;6.65;;
13327;SDS011;6733;51.044;3.746;2023-06-14T08:08:27;11.57;;;6.57;;
13327;SDS011;6733;51.044;3.746;2023-06-14T08:10:53;6.90;;;6.15;;
13327;SDS011;6733;51.044;3.746;2023-06-14T08:13:19;8.13;;;6.47;;
13327;SDS011;6733;51.044;3.746;2023-06-14T08:15:45;9.55;;;6.10;;
13327;SDS011;6733;51.044;3.746;2023-06-14T08:18:12;9.25;;;6.78;;
13327;SDS011;6733;51.044;3.746;2023-06-14T08:20:38;10.50;;;6.32;;
13327;SDS011;6733;51.044;3.746;2023-06-14T08:23:05;9.43;;;6.43;;
13327;SDS011;6733;51.044;3.746;2023-06-14T08:25:32;10.98;;;6.10;;
13327;SDS011;6733;51.044;3.746;2023-06-14T08:27:58;10.40;;;6.55;;
13327;SDS011;6733;51.044;3.746;2023-06-14T08:30:25;8.93;;;6.13;;
13327;SDS011;6733;51.044;3.746;2023-06-14T08:32:51;8.25;;;6.15;;
13327;SDS011;6733;51.044;3.746;2023-06-14T08:35:21;7.90;;;6.10;;
13327;SDS011;6733;51.044;3.746;2023-06-14T08:37:48;8.18;;;7.30;;
13327;SDS011;6733;51.044;3.746;2023-06-14T08:40:19;8.02;;;6.25;;
13327;SDS011;6733;51.044;3.746;2023-06-14T08:42:47;8.90;;;6.28;;
13327;SDS011;6733;51.044;3.746;2023-06-14T08:45:16;10.40;;;6.85;;
13327;SDS011;6733;51.044;3.746;2023-06-14T08:47:42;7.90;;;6.13;;
13327;SDS011;6733;51.044;3.746;2023-06-14T08:50:09;8.02;;;6.20;;
13327;SDS011;6733;51.044;3.746;2023-06-14T08:52:37;11.65;;;6.45;;
13327;SDS011;6733;51.044;3.746;2023-06-14T08:55:06;11.00;;;6.30;;
13327;SDS011;6733;51.044;3.746;2023-06-14T08:57:35;10.27;;;6.00;;
13327;SDS011;6733;51.044;3.746;2023-06-14T09:00:03;9.88;;;6.10;;
13327;SDS011;6733;51.044;3.746;2023-06-14T09:02:40;10.75;;;6.53;;
13327;SDS011;6733;51.044;3.746;2023-06-14T09:05:09;11.75;;;6.60;;
13327;SDS011;6733;51.044;3.746;2023-06-14T09:07:37;9.73;;;6.43;;
13327;SDS011;6733;51.044;3.746;2023-06-14T09:10:06;13.50;;;6.68;;
13327;SDS011;6733;51.044;3.746;2023-06-14T09:12:36;8.73;;;6.60;;
13327;SDS011;6733;51.044;3.746;2023-06-14T09:15:03;9.43;;;6.32;;
13327;SDS011;6733;51.044;3.746;2023-06-14T09:17:32;10.27;;;6.35;;
13327;SDS011;6733;51.044;3.746;2023-06-14T09:20:00;9.57;;;6.07;;
13327;SDS011;6733;51.044;3.746;2023-06-14T09:22:29;9.73;;;6.10;;
13327;SDS011;6733;51.044;3.746;2023-06-14T09:24:56;10.30;;;6.03;;
13327;SDS011;6733;51.044;3.746;2023-06-14T09:27:22;7.90;;;6.18;;
13327;SDS011;6733;51.044;3.746;2023-06-14T09:29:50;6.35;;;5.75;;
13327;SDS011;6733;51.044;3.746;2023-06-14T09:32:16;8.90;;;6.00;;
13327;SDS011;6733;51.044;3.746;2023-06-14T09:34:43;7.75;;;5.68;;
13327;SDS011;6733;51.044;3.746;2023-06-14T09:37:09;10.10;;;6.00;;
13327;SDS011;6733;51.044;3.746;2023-06-14T09:39:38;8.30;;;6.40;;
13327;SDS011;6733;51.044;3.746;2023-06-14T09:42:18;8.50;;;5.80;;
13327;SDS011;6733;51.044;3.746;2023-06-14T09:44:48;7.30;;;5.75;;
13327;SDS011;6733;51.044;3.746;2023-06-14T09:47:15;9.40;;;5.80;;
13327;SDS011;6733;51.044;3.746;2023-06-14T09:49:42;9.63;;;6.65;;
13327;SDS011;6733;51.044;3.746;2023-06-14T09:52:14;10.48;;;6.10;;
13327;SDS011;6733;51.044;3.746;2023-06-14T09:54:43;6.43;;;5.68;;
13327;SDS011;6733;51.044;3.746;2023-06-14T09:57:21;7.15;;;5.60;;
13327;SDS011;6733;51.044;3.746;2023-06-14T09:59:48;7.10;;;6.43;;
13327;SDS011;6733;51.044;3.746;2023-06-14T10:05:05;8.40;;;5.22;;
13327;SDS011;6733;51.044;3.746;2023-06-14T10:07:41;6.22;;;5.10;;
13327;SDS011;6733;51.044;3.746;2023-06-14T10:10:13;8.45;;;5.68;;
13327;SDS011;6733;51.044;3.746;2023-06-14T10:12:40;11.57;;;6.10;;
13327;SDS011;6733;51.044;3.746;2023-06-14T10:15:08;7.03;;;5.88;;
13327;SDS011;6733;51.044;3.746;2023-06-14T10:20:39;8.35;;;6.05;;
13327;SDS011;6733;51.044;3.746;2023-06-14T10:23:19;7.75;;;5.40;;
13327;SDS011;6733;51.044;3.746;2023-06-14T10:25:56;8.90;;;4.82;;
13327;SDS011;6733;51.044;3.746;2023-06-14T10:28:23;8.52;;;5.05;;
13327;SDS011;6733;51.044;3.746;2023-06-14T10:31:03;10.38;;;4.97;;
13327;SDS011;6733;51.044;3.746;2023-06-14T10:33:48;7.63;;;5.07;;
13327;SDS011;6733;51.044;3.746;2023-06-14T10:36:25;7.22;;;5.85;;
13327;SDS011;6733;51.044;3.746;2023-06-14T10:39:00;7.47;;;5.40;;
13327;SDS011;6733;51.044;3.746;2023-06-14T10:41:28;7.93;;;5.60;;
13327;SDS011;6733;51.044;3.746;2023-06-14T10:46:39;9.73;;;5.57;;
13327;SDS011;6733;51.044;3.746;2023-06-14T10:49:06;8.82;;;5.10;;
13327;SDS011;6733;51.044;3.746;2023-06-14T10:51:39;9.15;;;5.90;;
13327;SDS011;6733;51.044;3.746;2023-06-14T10:54:13;7.55;;;5.90;;
13327;SDS011;6733;51.044;3.746;2023-06-14T10:56:51;7.68;;;6.75;;
13327;SDS011;6733;51.044;3.746;2023-06-14T10:59:18;7.25;;;5.78;;
13327;SDS011;6733;51.044;3.746;2023-06-14T11:05:14;10.15;;;5.80;;
13327;SDS011;6733;51.044;3.746;2023-06-14T11:13:05;7.60;;;5.35;;
13327;SDS011;6733;51.044;3.746;2023-06-14T11:15:38;6.68;;;5.13;;
13327;SDS011;6733;51.044;3.746;2023-06-14T11:18:08;6.28;;;5.32;;
13327;SDS011;6733;51.044;3.746;2023-06-14T11:20:36;7.75;;;5.82;;
13327;SDS011;6733;51.044;3.746;2023-06-14T11:23:03;6.88;;;5.60;;
13327;SDS011;6733;51.044;3.746;2023-06-14T11:25:29;9.90;;;5.85;;
13327;SDS011;6733;51.044;3.746;2023-06-14T11:27:56;8.02;;;5.28;;
13327;SDS011;6733;51.044;3.746;2023-06-14T11:30:23;9.25;;;5.05;;
13327;SDS011;6733;51.044;3.746;2023-06-14T11:32:51;7.47;;;5.57;;
13327;SDS011;6733;51.044;3.746;2023-06-14T11:35:19;6.80;;;5.80;;
13327;SDS011;6733;51.044;3.746;2023-06-14T11:37:49;8.38;;;5.95;;
13327;SDS011;6733;51.044;3.746;2023-06-14T11:40:19;6.63;;;5.95;;
13327;SDS011;6733;51.044;3.746;2023-06-14T11:42:45;10.23;;;6.38;;
13327;SDS011;6733;51.044;3.746;2023-06-14T11:45:12;6.30;;;5.45;;
13327;SDS011;6733;51.044;3.746;2023-06-14T11:47:38;9.38;;;5.70;;
13327;SDS011;6733;51.044;3.746;2023-06-14T11:50:06;7.90;;;5.80;;
13327;SDS011;6733;51.044;3.746;2023-06-14T11:52:37;8.45;;;6.18;;
13327;SDS011;6733;51.044;3.746;2023-06-14T11:55:03;7.20;;;6.15;;
13327;SDS011;6733;51.044;3.746;2023-06-14T11:57:34;6.68;;;5.72;;
13327;SDS011;6733;51.044;3.746;2023-06-14T12:00:04;7.25;;;5.25;;
13327;SDS011;6733;51.044;3.746;2023-06-14T12:02:38;8.20;;;5.07;;
13327;SDS011;6733;51.044;3.746;2023-06-14T12:05:08;6.55;;;5.55;;
13327;SDS011;6733;51.044;3.746;2023-06-14T12:07:38;6.78;;;5.47;;
13327;SDS011;6733;51.044;3.746;2023-06-14T12:10:08;8.45;;;5.45;;
13327;SDS011;6733;51.044;3.746;2023-06-14T12:12:36;7.43;;;5.28;;
13327;SDS011;6733;51.044;3.746;2023-06-14T12:15:04;5.70;;;5.20;;
13327;SDS011;6733;51.044;3.746;2023-06-14T12:17:32;7.13;;;5.85;;
13327;SDS011;6733;51.044;3.746;2023-06-14T12:20:04;7.95;;;5.85;;
13327;SDS011;6733;51.044;3.746;2023-06-14T12:22:40;9.32;;;5.88;;
13327;SDS011;6733;51.044;3.746;2023-06-14T12:28:06;8.23;;;5.97;;
13327;SDS011;6733;51.044;3.746;2023-06-14T12:30:35;6.75;;;5.47;;
13327;SDS011;6733;51.044;3.746;2023-06-14T12:33:02;10.93;;;5.80;;
13327;SDS011;6733;51.044;3.746;2023-06-14T12:35:28;11.88;;;5.85;;
13327;SDS011;6733;51.044;3.746;2023-06-14T12:37:55;7.55;;;5.82;;
13327;SDS011;6733;51.044;3.746;2023-06-14T12:40:22;9.88;;;5.65;;
13327;SDS011;6733;51.044;3.746;2023-06-14T12:42:48;6.40;;;5.65;;
13327;SDS011;6733;51.044;3.746;2023-06-14T12:45:15;8.35;;;5.38;;
13327;SDS011;6733;51.044;3.746;2023-06-14T12:47:41;6.45;;;5.82;;
13327;SDS011;6733;51.044;3.746;2023-06-14T12:50:08;6.30;;;5.35;;
13327;SDS011;6733;51.044;3.746;2023-06-14T12:52:34;10.57;;;5.70;;
13327;SDS011;6733;51.044;3.746;2023-06-14T12:55:04;5.97;;;5.30;;
13327;SDS011;6733;51.044;3.746;2023-06-14T12:57:31;13.55;;;6.13;;
13327;SDS011;6733;51.044;3.746;2023-06-14T12:59:59;7.63;;;5.00;;
13327;SDS011;6733;51.044;3.746;2023-06-14T13:02:26;6.20;;;5.35;;
13327;SDS011;6733;51.044;3.746;2023-06-14T13:04:52;10.32;;;5.68;;
13327;SDS011;6733;51.044;3.746;2023-06-14T13:07:18;9.07;;;5.10;;
13327;SDS011;6733;51.044;3.746;2023-06-14T13:09:44;7.65;;;4.85;;
13327;SDS011;6733;51.044;3.746;2023-06-14T13:12:11;6.35;;;4.85;;
13327;SDS011;6733;51.044;3.746;2023-06-14T13:14:38;7.45;;;5.32;;
13327;SDS011;6733;51.044;3.746;2023-06-14T13:17:08;6.95;;;5.63;;
13327;SDS011;6733;51.044;3.746;2023-06-14T13:19:35;10.05;;;5.63;;
13327;SDS011;6733;51.044;3.746;2023-06-14T13:22:01;9.32;;;5.40;;
13327;SDS011;6733;51.044;3.746;2023-06-14T13:24:28;8.95;;;4.57;;
13327;SDS011;6733;51.044;3.746;2023-06-14T13:26:55;8.68;;;5.43;;
13327;SDS011;6733;51.044;3.746;2023-06-14T13:29:22;9.77;;;5.03;;
13327;SDS011;6733;51.044;3.746;2023-06-14T13:31:49;5.78;;;4.80;;
13327;SDS011;6733;51.044;3.746;2023-06-14T13:34:18;9.95;;;5.00;;
13327;SDS011;6733;51.044;3.746;2023-06-14T13:36:45;8.35;;;5.35;;
13327;SDS011;6733;51.044;3.746;2023-06-14T13:39:11;7.32;;;4.88;;
13327;SDS011;6733;51.044;3.746;2023-06-14T13:41:37;7.93;;;4.95;;
13327;SDS011;6733;51.044;3.746;2023-06-14T13:44:03;8.57;;;5.53;;
13327;SDS011;6733;51.044;3.746;2023-06-14T13:46:30;10.82;;;4.82;;
13327;SDS011;6733;51.044;3.746;2023-06-14T13:48:56;7.13;;;5.07;;
13327;SDS011;6733;51.044;3.746;2023-06-14T13:51:27;6.60;;;5.20;;
13327;SDS011;6733;51.044;3.746;2023-06-14T13:53:54;8.45;;;5.10;;
13327;SDS011;6733;51.044;3.746;2023-06-14T13:56:21;10.95;;;5.10;;
13327;SDS011;6733;51.044;3.746;2023-06-14T13:58:50;9.15;;;5.03;;
13327;SDS011;6733;51.044;3.746;2023-06-14T14:01:17;9.68;;;5.25;;
13327;SDS011;6733;51.044;3.746;2023-06-14T14:03:48;12.70;;;5.82;;
13327;SDS011;6733;51.044;3.746;2023-06-14T14:06:15;7.57;;;5.10;;
13327;SDS011;6733;51.044;3.746;2023-06-14T14:08:42;8.88;;;4.90;;
13327;SDS011;6733;51.044;3.746;2023-06-14T14:11:09;7.93;;;4.88;;
13327;SDS011;6733;51.044;3.746;2023-06-14T14:13:35;8.68;;;4.55;;
13327;SDS011;6733;51.044;3.746;2023-06-14T14:16:02;8.75;;;4.72;;
13327;SDS011;6733;51.044;3.746;2023-06-14T14:18:29;6.28;;;4.80;;
13327;SDS011;6733;51.044;3.746;2023-06-14T14:20:55;8.43;;;5.00;;
13327;SDS011;6733;51.044;3.746;2023-06-14T14:23:21;5.45;;;4.30;;
13327;SDS011;6733;51.044;3.746;2023-06-14T14:25:47;5.68;;;4.68;;
13327;SDS011;6733;51.044;3.746;2023-06-14T14:28:14;8.30;;;3.90;;
13327;SDS011;6733;51.044;3.746;2023-06-14T14:30:41;8.48;;;5.15;;
13327;SDS011;6733;51.044;3.746;2023-06-14T14:33:07;7.18;;;4.40;;
13327;SDS011;6733;51.044;3.746;2023-06-14T14:35:34;6.93;;;4.20;;
13327;SDS011;6733;51.044;3.746;2023-06-14T14:38:00;7.97;;;4.38;;
13327;SDS011;6733;51.044;3.746;2023-06-14T14:40:28;8.43;;;4.40;;
13327;SDS011;6733;51.044;3.746;2023-06-14T14:42:55;6.47;;;4.40;;
13327;SDS011;6733;51.044;3.746;2023-06-14T14:45:21;5.35;;;4.30;;
13327;SDS011;6733;51.044;3.746;2023-06-14T14:47:47;4.50;;;4.10;;
13327;SDS011;6733;51.044;3.746;2023-06-14T14:50:13;5.18;;;3.75;;
13327;SDS011;6733;51.044;3.746;2023-06-14T14:52:40;6.80;;;3.90;;
13327;SDS011;6733;51.044;3.746;2023-06-14T14:55:06;8.73;;;4.30;;
13327;SDS011;6733;51.044;3.746;2023-06-14T14:57:33;7.78;;;4.30;;
13327;SDS011;6733;51.044;3.746;2023-06-14T14:59:59;6.25;;;3.65;;
13327;SDS011;6733;51.044;3.746;2023-06-14T15:02:25;5.53;;;3.40;;
13327;SDS011;6733;51.044;3.746;2023-06-14T15:04:51;7.20;;;3.65;;
13327;SDS011;6733;51.044;3.746;2023-06-14T15:07:17;7.10;;;3.97;;
13327;SDS011;6733;51.044;3.746;2023-06-14T15:09:44;7.35;;;3.75;;
13327;SDS011;6733;51.044;3.746;2023-06-14T15:12:10;8.85;;;3.33;;
13327;SDS011;6733;51.044;3.746;2023-06-14T15:14:36;4.30;;;3.53;;
13327;SDS011;6733;51.044;3.746;2023-06-14T15:17:02;4.30;;;3.38;;
13327;SDS011;6733;51.044;3.746;2023-06-14T15:19:29;4.30;;;3.10;;
13327;SDS011;6733;51.044;3.746;2023-06-14T15:22:02;3.00;;;2.70;;
13327;SDS011;6733;51.044;3.746;2023-06-14T15:24:29;3.45;;;2.70;;
13327;SDS011;6733;51.044;3.746;2023-06-14T15:26:56;4.45;;;2.80;;
13327;SDS011;6733;51.044;3.746;2023-06-14T15:29:22;5.05;;;2.78;;
13327;SDS011;6733;51.044;3.746;2023-06-14T15:31:51;4.38;;;2.70;;